Time;durP1;ratioP1;P1;durP2;ratioP2;P2;SDS_P1;SDS_P2;PMS_P1;PMS_P2;Temp;Humidity;BMP_temperature;BMP_pressure;BME280_temperature;BME280_humidity;BME280_pressure;Samples;Min_cycle;Max_cycle;Signal;HPM_P1;HPM_P2
2022/06/15 00:16:27;;;;;;;;;10.33;8.00;;;;;22.64;39.47;101052.44;5107714;27;46162;-71
2022/06/15 00:18:52;;;;;;;;;7.00;7.00;;;;;22.74;39.47;101063.16;5087694;27;45927;-72
2022/06/15 00:21:19;;;;;;;;;7.33;5.33;;;;;22.76;39.57;101064.03;5090460;27;45593;-71
2022/06/15 00:23:45;;;;;;;;;5.00;5.00;;;;;22.71;39.45;101071.38;5092139;27;45516;-71
2022/06/15 00:26:11;;;;;;;;;5.00;5.00;;;;;22.61;39.62;101060.66;5090569;27;46026;-72
2022/06/15 00:28:37;;;;;;;;;9.33;7.33;;;;;22.63;39.66;101068.78;5086621;27;46002;-73
2022/06/15 00:31:03;;;;;;;;;7.67;5.33;;;;;22.60;39.92;101067.03;5078544;27;45436;-72
2022/06/15 00:33:28;;;;;;;;;8.00;6.00;;;;;22.21;39.85;101006.00;5079142;27;45803;-70
2022/06/15 00:36:01;;;;;;;;;7.00;7.00;;;;;22.56;39.96;101072.56;5078846;27;46535;-73
2022/06/15 00:38:33;;;;;;;;;5.00;5.00;;;;;22.49;39.99;101058.16;5088457;27;45493;-73
2022/06/15 00:41:00;;;;;;;;;6.00;6.00;;;;;22.53;40.13;101073.50;5092030;27;45438;-73
2022/06/15 00:43:41;;;;;;;;;6.67;6.67;;;;;22.51;40.25;101077.22;5087949;27;45672;-71
2022/06/15 00:46:31;;;;;;;;;7.33;6.33;;;;;22.49;40.35;101079.03;5086014;27;45655;-72
2022/06/15 00:49:13;;;;;;;;;9.00;7.67;;;;;22.45;40.61;101083.63;5086141;27;45867;-72
2022/06/15 00:51:39;;;;;;;;;5.00;5.00;;;;;22.32;40.67;101065.72;5085295;27;45617;-71
2022/06/15 00:54:06;;;;;;;;;5.33;4.67;;;;;22.04;40.83;101011.72;5077544;27;45798;-72
2022/06/15 00:56:34;;;;;;;;;13.33;8.33;;;;;22.32;41.00;101065.72;5077739;27;46385;-72
2022/06/15 00:59:28;;;;;;;;;4.67;4.67;;;;;22.42;40.95;101083.69;5079432;27;45790;-72
2022/06/15 01:01:53;;;;;;;;;6.33;6.00;;;;;22.25;41.04;101052.19;5081229;27;45596;-71
2022/06/15 01:04:21;;;;;;;;;5.33;5.33;;;;;22.31;41.42;101074.84;5085795;27;45431;-71
2022/06/15 01:06:55;;;;;;;;;6.00;5.33;;;;;22.22;41.65;101070.38;5086061;27;45545;-70
2022/06/15 01:09:24;;;;;;;;;6.00;4.00;;;;;22.21;41.91;101091.28;5085740;27;45945;-70
2022/06/15 01:12:31;;;;;;;;;7.67;7.00;;;;;22.12;41.94;101068.75;5085634;27;46064;-72
2022/06/15 01:15:15;;;;;;;;;6.00;6.00;;;;;21.95;42.52;101049.97;5083463;27;45964;-72
2022/06/15 01:17:56;;;;;;;;;8.67;7.67;;;;;22.07;42.31;101086.03;5063771;27;46254;-71
2022/06/15 01:20:37;;;;;;;;;5.33;5.00;;;;;22.07;42.48;101088.75;5068671;27;46104;-70
2022/06/15 01:23:17;;;;;;;;;6.00;6.00;;;;;22.02;42.76;101092.47;5069806;27;45476;-71
2022/06/15 01:26:07;;;;;;;;;6.67;6.67;;;;;21.98;43.03;101071.72;5070651;27;45950;-72
2022/06/15 01:28:43;;;;;;;;;7.00;6.00;;;;;21.98;42.96;101094.34;5071295;27;46254;-71
2022/06/15 01:31:17;;;;;;;;;5.00;4.67;;;;;21.94;43.08;101083.53;5072293;27;46187;-72
2022/06/15 01:33:48;;;;;;;;;7.67;4.33;;;;;21.90;43.36;101080.88;5071859;27;45569;-70
2022/06/15 01:36:46;;;;;;;;;8.33;7.67;;;;;21.69;43.63;101054.88;5072426;27;45956;-71
2022/06/15 01:39:23;;;;;;;;;13.33;8.33;;;;;21.86;43.69;101072.75;5063306;27;46844;-72
2022/06/15 01:42:06;;;;;;;;;10.33;8.00;;;;;21.83;43.69;101081.88;5064115;27;46177;-70
2022/06/15 01:44:37;;;;;;;;;9.33;6.00;;;;;21.65;43.98;101050.41;5067273;27;45566;-72
2022/06/15 01:47:09;;;;;;;;;5.67;5.67;;;;;21.70;44.13;101066.69;5075604;27;46227;-73
2022/06/15 01:50:02;;;;;;;;;11.00;7.00;;;;;21.73;44.19;101080.22;5071841;27;45529;-73
2022/06/15 01:52:43;;;;;;;;;7.67;6.33;;;;;21.74;44.10;101068.41;5072010;27;45637;-71
2022/06/15 01:55:18;;;;;;;;;8.00;6.00;;;;;21.75;44.01;101067.50;5073357;27;45570;-72
2022/06/15 01:57:47;;;;;;;;;7.00;7.00;;;;;21.73;44.36;101074.78;5071515;27;45380;-70
2022/06/15 02:00:17;;;;;;;;;11.00;7.00;;;;;21.52;44.28;101046.97;5071025;27;46612;-70
2022/06/15 02:03:12;;;;;;;;;9.00;8.00;;;;;21.63;44.44;101060.44;5066138;27;45957;-71
2022/06/15 02:06:05;;;;;;;;;6.33;6.33;;;;;21.53;44.89;101064.16;5069316;27;45895;-72
2022/06/15 02:08:36;;;;;;;;;8.00;7.00;;;;;21.53;44.89;101065.09;5076715;27;45909;-72
2022/06/15 02:11:08;;;;;;;;;7.00;7.00;;;;;21.47;45.10;101057.00;5076276;27;46235;-72
2022/06/15 02:13:41;;;;;;;;;7.00;6.33;;;;;21.49;45.29;101047.00;5070329;27;45911;-69
2022/06/15 02:16:12;;;;;;;;;4.00;4.00;;;;;21.28;45.13;101026.44;5070938;27;45859;-70
2022/06/15 02:18:41;;;;;;;;;7.33;6.00;;;;;21.47;45.16;101053.38;5071630;27;45895;-73
2022/06/15 02:21:10;;;;;;;;;8.00;7.00;;;;;21.30;45.05;101023.69;5071389;27;46164;-74
2022/06/15 02:23:40;;;;;;;;;12.00;8.67;;;;;21.35;45.29;101029.97;5066614;27;45707;-73
2022/06/15 02:26:07;;;;;;;;;9.33;8.67;;;;;21.44;45.56;101051.59;5063409;27;45803;-72
2022/06/15 02:28:37;;;;;;;;;8.00;7.67;;;;;21.27;45.66;101015.59;5063158;27;46048;-72
2022/06/15 02:31:03;;;;;;;;;6.67;6.67;;;;;21.28;45.70;101023.72;5075044;27;46413;-71
2022/06/15 02:33:32;;;;;;;;;7.00;7.00;;;;;21.35;45.72;101040.84;5071011;27;45555;-74
2022/06/15 02:35:59;;;;;;;;;10.67;7.67;;;;;21.37;45.70;101047.16;5071055;27;45897;-72
2022/06/15 02:38:27;;;;;;;;;10.67;8.00;;;;;21.28;45.52;101036.41;5071074;27;45641;-74
2022/06/15 02:40:53;;;;;;;;;6.00;6.00;;;;;21.14;45.72;101018.47;5070199;27;46216;-69
2022/06/15 02:43:22;;;;;;;;;8.67;8.67;;;;;21.08;45.68;101009.50;5089808;27;45754;-71
2022/06/15 02:45:50;;;;;;;;;8.67;8.00;;;;;21.23;45.78;101036.47;5064177;27;45622;-71
2022/06/15 02:48:16;;;;;;;;;17.00;17.00;;;;;21.06;45.88;101004.06;5062944;27;45805;-71
2022/06/15 02:50:54;;;;;;;;;11.50;8.50;;;;;21.29;46.13;101040.94;5063182;27;45703;-72
2022/06/15 02:53:24;;;;;;;;;9.33;7.00;;;;;21.09;46.27;100995.91;5076599;27;45610;-71
2022/06/15 02:55:51;;;;;;;;;7.33;7.33;;;;;21.30;46.00;101034.56;5070781;27;45463;-70
2022/06/15 02:58:32;;;;;;;;;11.67;6.67;;;;;21.14;46.15;101023.91;5070299;27;45538;-70
2022/06/15 03:00:59;;;;;;;;;9.33;9.00;;;;;21.12;46.25;101016.69;5070325;27;46186;-72
2022/06/15 03:03:26;;;;;;;;;5.33;5.00;;;;;21.26;46.32;101040.97;5070533;27;45867;-70
2022/06/15 03:05:52;;;;;;;;;8.33;7.00;;;;;21.16;46.20;101026.59;5070587;27;46352;-70
2022/06/15 03:08:19;;;;;;;;;9.67;7.00;;;;;21.22;46.13;101042.81;5066324;27;45686;-72
2022/06/15 03:10:45;;;;;;;;;8.00;8.00;;;;;21.04;46.82;101024.94;5063177;27;46815;-69
2022/06/15 03:13:11;;;;;;;;;8.00;8.00;;;;;21.13;46.67;101038.38;5063522;27;45456;-72
2022/06/15 03:15:36;;;;;;;;;6.67;5.00;;;;;20.89;46.98;101009.72;5070228;27;45800;-71
2022/06/15 03:18:02;;;;;;;;;4.00;4.00;;;;;21.05;46.71;101047.56;5072340;27;45495;-71
2022/06/15 03:20:28;;;;;;;;;8.33;7.00;;;;;21.02;46.70;101053.94;5076955;27;45539;-69
2022/06/15 03:22:53;;;;;;;;;14.75;13.00;;;;;20.86;46.71;101027.88;5070204;27;45598;-74
2022/06/15 03:25:18;;;;;;;;;7.33;7.33;;;;;20.85;46.96;101039.66;5070639;27;47425;-74
2022/06/15 03:27:44;;;;;;;;;6.33;6.33;;;;;20.82;46.93;101024.28;5070606;27;45842;-74
2022/06/15 03:30:11;;;;;;;;;10.33;8.33;;;;;20.95;47.36;101061.28;5071994;27;46247;-72
2022/06/15 03:32:37;;;;;;;;;10.00;8.00;;;;;20.93;47.06;101051.34;5061014;27;46330;-70
2022/06/15 03:35:03;;;;;;;;;6.33;6.33;;;;;20.85;46.90;101037.81;5062119;27;45511;-72
2022/06/15 03:37:29;;;;;;;;;7.00;6.00;;;;;20.92;46.95;101052.22;5066286;27;45883;-73
2022/06/15 03:39:55;;;;;;;;;10.00;4.67;;;;;20.83;47.05;101041.50;5069059;27;45990;-72
2022/06/15 03:42:22;;;;;;;;;9.67;8.00;;;;;20.78;46.94;101033.41;5069060;27;45537;-73
2022/06/15 03:44:48;;;;;;;;;7.00;7.00;;;;;20.75;46.85;101025.28;5068308;27;45524;-71
2022/06/15 03:47:17;;;;;;;;;11.33;7.00;;;;;20.85;47.19;101045.09;5067351;27;45564;-69
2022/06/15 03:49:48;;;;;;;;;10.33;10.33;;;;;20.92;47.43;101053.16;5070410;27;45791;-72
2022/06/15 03:52:17;;;;;;;;;8.00;7.00;;;;;20.94;47.46;101053.13;5069607;27;46052;-71
2022/06/15 03:54:42;;;;;;;;;9.67;9.67;;;;;20.80;47.85;101048.78;5060813;27;45783;-72
2022/06/15 03:57:11;;;;;;;;;8.33;7.33;;;;;20.71;47.57;101035.28;5061644;27;45516;-69
2022/06/15 03:59:36;;;;;;;;;11.33;7.00;;;;;20.73;47.78;101041.59;5064209;27;46286;-74
2022/06/15 04:02:02;;;;;;;;;9.67;8.00;;;;;20.81;47.82;101057.81;5068985;27;45621;-72
2022/06/15 04:04:27;;;;;;;;;8.33;8.33;;;;;20.69;47.54;101033.47;5069331;27;45496;-71
2022/06/15 04:06:52;;;;;;;;;8.67;8.67;;;;;20.72;47.57;101026.22;5068907;27;45511;-72
2022/06/15 04:09:22;;;;;;;;;9.33;7.67;;;;;20.73;48.16;101049.72;5069465;27;46812;-72
2022/06/15 04:14:33;;;;;;;;;10.00;10.00;;;;;20.61;48.07;101044.41;5067279;27;45638;-69
2022/06/15 04:16:59;;;;;;;;;9.67;9.00;;;;;20.47;48.05;101022.81;5060606;27;45807;-71
2022/06/15 04:19:30;;;;;;;;;10.33;7.00;;;;;20.69;48.00;101061.56;5065767;27;46404;-70
2022/06/15 04:21:55;;;;;;;;;9.67;8.33;;;;;20.71;47.92;101058.81;5063803;27;45510;-73
2022/06/15 04:24:23;;;;;;;;;11.67;9.67;;;;;20.69;47.84;101053.41;5069339;27;45553;-73
2022/06/15 04:26:50;;;;;;;;;7.00;7.00;;;;;20.46;48.35;101022.84;5069455;27;45917;-74
2022/06/15 04:29:17;;;;;;;;;8.00;8.00;;;;;20.55;48.44;101041.75;5068572;27;46519;-74
2022/06/15 04:31:42;;;;;;;;;12.00;10.67;;;;;20.39;48.69;101019.28;5074037;27;45399;-75
2022/06/15 04:34:09;;;;;;;;;9.67;9.67;;;;;20.51;48.52;101053.53;5071634;27;45448;-74
2022/06/15 04:36:36;;;;;;;;;8.00;8.00;;;;;20.52;48.81;101060.78;5069440;27;45828;-73
2022/06/15 04:39:02;;;;;;;;;9.67;9.67;;;;;20.43;48.82;101050.91;5060082;27;46188;-72
2022/06/15 04:41:28;;;;;;;;;7.00;6.33;;;;;20.48;48.62;101048.16;5060197;27;45753;-71
2022/06/15 04:43:53;;;;;;;;;11.00;8.67;;;;;20.57;48.51;101067.06;5065715;27;45905;-70
2022/06/15 04:46:19;;;;;;;;;10.00;10.00;;;;;20.55;48.83;101067.06;5069429;27;45621;-75
2022/06/15 04:48:44;;;;;;;;;10.33;10.33;;;;;20.44;48.53;101037.34;5074468;27;46273;-73
2022/06/15 04:51:15;;;;;;;;;15.00;12.33;;;;;20.63;48.58;101064.31;5070217;27;45549;-73
2022/06/15 04:53:40;;;;;;;;;11.67;9.67;;;;;20.66;48.45;101072.44;5076138;27;45571;-72
2022/06/15 04:56:06;;;;;;;;;11.67;10.00;;;;;20.60;48.42;101069.75;5093038;27;45425;-74
2022/06/15 04:58:31;;;;;;;;;10.33;8.33;;;;;20.61;48.90;101072.44;5072273;27;48287;-70
2022/06/15 05:00:57;;;;;;;;;13.33;11.33;;;;;20.50;48.41;101049.94;5064650;27;45790;-70
2022/06/15 05:03:22;;;;;;;;;10.00;10.00;;;;;20.59;48.39;101063.44;5064192;27;45729;-73
2022/06/15 05:05:47;;;;;;;;;9.67;8.00;;;;;20.59;48.28;101057.06;5064742;27;45875;-72
2022/06/15 05:08:13;;;;;;;;;12.33;12.33;;;;;20.69;48.16;101075.13;5069993;27;46141;-71
2022/06/15 05:10:38;;;;;;;;;12.67;12.33;;;;;20.75;48.20;101088.63;5072105;27;45439;-73
2022/06/15 05:13:04;;;;;;;;;8.67;8.33;;;;;20.71;48.10;101069.69;5071414;27;45495;-72
2022/06/15 05:15:29;;;;;;;;;33.25;30.25;;;;;20.76;48.27;101067.81;5074896;27;46190;-74
2022/06/15 05:17:55;;;;;;;;;21.25;19.75;;;;;20.66;47.97;101056.16;5078067;27;46146;-69
2022/06/15 05:20:20;;;;;;;;;11.33;11.33;;;;;20.82;47.97;101078.59;5071963;27;45474;-72
2022/06/15 05:22:53;;;;;;;;;11.50;11.00;;;;;20.36;47.86;100995.81;5069905;27;45871;-72
2022/06/15 05:25:20;;;;;;;;;11.67;10.00;;;;;20.84;47.75;101073.16;5062766;27;45854;-71
2022/06/15 05:27:46;;;;;;;;;10.67;10.67;;;;;20.68;47.82;101046.16;5062977;27;46973;-71
2022/06/15 05:30:12;;;;;;;;;10.67;9.67;;;;;20.87;47.74;101086.69;5073483;27;45951;-70
2022/06/15 05:32:37;;;;;;;;;12.33;10.67;;;;;20.50;47.79;101014.66;5073574;27;45941;-72
2022/06/15 05:35:03;;;;;;;;;9.67;9.00;;;;;20.91;48.11;101080.34;5074494;27;45609;-71
2022/06/15 05:37:30;;;;;;;;;16.00;12.67;;;;;20.51;47.64;101008.31;5074847;27;46122;-72
2022/06/15 05:39:56;;;;;;;;;14.33;11.67;;;;;20.92;47.79;101079.41;5073006;27;45501;-74
2022/06/15 05:42:22;;;;;;;;;12.67;11.33;;;;;20.90;47.54;101081.25;5071406;27;45797;-70
2022/06/15 05:44:50;;;;;;;;;12.33;11.67;;;;;20.73;47.62;101043.41;5072582;27;45566;-72
2022/06/15 05:47:15;;;;;;;;;13.33;11.33;;;;;20.81;47.84;101065.94;5066302;27;46000;-70
2022/06/15 05:49:41;;;;;;;;;17.25;13.50;;;;;20.86;47.81;101065.91;5063195;27;45866;-71
2022/06/15 05:52:06;;;;;;;;;13.50;11.25;;;;;20.92;47.94;101083.03;5066268;27;45454;-72
2022/06/15 05:54:32;;;;;;;;;15.50;15.50;;;;;21.00;47.51;101077.50;5076119;27;45506;-71
2022/06/15 05:56:57;;;;;;;;;12.00;12.00;;;;;21.02;47.47;101077.47;5071221;27;46507;-72
2022/06/15 05:59:23;;;;;;;;;13.67;13.67;;;;;20.97;47.62;101062.16;5073788;27;46900;-71
2022/06/15 06:01:48;;;;;;;;;12.67;11.00;;;;;20.72;47.54;101020.81;5072879;27;45559;-72
2022/06/15 06:04:15;;;;;;;;;10.33;10.33;;;;;21.01;47.41;101075.69;5072143;27;46022;-70
2022/06/15 06:06:41;;;;;;;;;13.67;12.00;;;;;21.16;47.24;101092.69;5077547;27;46286;-72
2022/06/15 06:09:06;;;;;;;;;12.67;10.67;;;;;21.19;47.09;101091.78;5063179;27;46013;-71
2022/06/15 06:11:32;;;;;;;;;11.33;10.67;;;;;21.23;47.20;101093.53;5062042;27;46065;-71
2022/06/15 06:13:57;;;;;;;;;18.00;17.25;;;;;21.28;47.26;101090.75;5064173;27;45440;-72
2022/06/15 06:16:23;;;;;;;;;13.00;12.67;;;;;21.34;47.04;101087.97;5077672;27;46903;-73
2022/06/15 06:18:50;;;;;;;;;11.33;11.33;;;;;21.38;46.95;101091.53;5074339;27;45837;-74
2022/06/15 06:21:15;;;;;;;;;11.00;11.00;;;;;21.46;46.29;101090.50;5071973;27;46970;-72
2022/06/15 06:23:40;;;;;;;;;11.67;9.33;;;;;21.53;46.61;101086.84;5076123;27;45675;-74
2022/06/15 06:26:06;;;;;;;;;14.00;10.00;;;;;21.52;46.23;101070.56;5070842;27;46317;-73
2022/06/15 06:28:40;;;;;;;;;10.33;10.33;;;;;21.48;46.35;101066.97;5070900;27;45594;-70
2022/06/15 06:31:07;;;;;;;;;13.33;11.33;;;;;21.64;46.13;101074.91;5067525;27;45795;-70
2022/06/15 06:33:35;;;;;;;;;12.67;11.00;;;;;21.62;45.88;101060.44;5064892;27;45914;-70
2022/06/15 06:36:06;;;;;;;;;13.67;12.00;;;;;21.77;45.87;101079.25;5065167;27;45516;-73
2022/06/15 06:38:32;;;;;;;;;8.00;6.33;;;;;21.77;45.72;101068.38;5087478;27;45946;-71
2022/06/15 06:40:59;;;;;;;;;9.00;7.67;;;;;21.84;45.16;101080.94;5071340;27;45641;-71
2022/06/15 06:43:25;;;;;;;;;15.00;10.33;;;;;21.92;45.18;101082.66;5070368;27;45637;-70
2022/06/15 06:45:50;;;;;;;;;14.33;9.67;;;;;21.97;44.79;101083.50;5069757;27;46587;-74
2022/06/15 06:48:16;;;;;;;;;16.67;12.33;;;;;22.03;44.99;101075.25;5070558;27;45654;-71
2022/06/15 06:50:42;;;;;;;;;15.00;11.33;;;;;21.99;44.74;101065.31;5069906;27;45562;-71
2022/06/15 06:53:10;;;;;;;;;11.33;11.33;;;;;22.19;44.68;101090.41;5067916;27;46207;-70
2022/06/15 06:55:35;;;;;;;;;12.00;11.67;;;;;22.19;44.56;101073.16;5065039;27;46217;-73
2022/06/15 06:58:01;;;;;;;;;15.67;15.67;;;;;22.26;44.61;101077.59;5062642;27;45795;-73
2022/06/15 07:00:29;;;;;;;;;13.33;10.33;;;;;22.33;44.27;101087.47;5067340;27;45608;-74
2022/06/15 07:02:55;;;;;;;;;11.00;8.00;;;;;22.39;44.05;101083.75;5070457;27;45422;-73
2022/06/15 07:05:20;;;;;;;;;13.00;12.00;;;;;22.05;44.12;101008.09;5069191;27;45924;-72
2022/06/15 07:07:46;;;;;;;;;12.33;12.00;;;;;22.58;44.51;101089.78;5070016;27;45550;-74
2022/06/15 07:10:12;;;;;;;;;14.67;11.00;;;;;22.49;44.18;101059.97;5072959;27;45310;-73
2022/06/15 07:12:38;;;;;;;;;13.33;11.33;;;;;22.61;44.12;101068.81;5069223;27;45690;-68
2022/06/15 07:15:06;;;;;;;;;16.33;14.67;;;;;22.75;43.93;101084.00;5066365;27;46461;-67
2022/06/15 07:17:31;;;;;;;;;11.67;11.33;;;;;22.82;43.95;101088.44;5060138;27;45794;-66
2022/06/15 07:19:57;;;;;;;;;14.33;11.00;;;;;22.84;43.56;101077.50;5063622;27;46148;-69
2022/06/15 07:22:22;;;;;;;;;12.67;12.67;;;;;22.93;43.62;101080.94;5064683;27;45807;-66
2022/06/15 07:24:48;;;;;;;;;21.67;18.67;;;;;23.01;43.60;101078.06;5069134;27;46546;-67
2022/06/15 07:27:15;;;;;;;;;27.75;23.25;;;;;23.05;43.36;101074.34;5068594;27;45898;-71
2022/06/15 07:29:40;;;;;;;;;13.33;12.33;;;;;23.22;42.86;101086.78;5069567;27;46045;-66
2022/06/15 07:32:06;;;;;;;;;17.33;12.00;;;;;23.31;42.99;101092.03;5076597;27;45452;-64
2022/06/15 07:34:31;;;;;;;;;8.67;6.33;;;;;23.37;42.41;101089.16;5074337;27;46573;-65
2022/06/15 07:36:57;;;;;;;;;12.00;9.67;;;;;23.54;42.35;101088.78;5069100;27;45804;-65
2022/06/15 07:39:27;;;;;;;;;14.00;12.00;;;;;23.10;42.16;101000.69;5068177;27;45966;-67
2022/06/15 07:41:54;;;;;;;;;12.67;10.33;;;;;23.86;41.81;101090.84;5061441;27;45921;-64
2022/06/15 07:44:23;;;;;;;;;52.75;42.75;;;;;23.96;41.56;101086.06;5063510;27;45667;-66
2022/06/15 07:46:48;;;;;;;;;17.67;17.00;;;;;24.16;41.46;101095.63;5068820;27;45744;-66
2022/06/15 07:52:02;;;;;;;;;10.33;8.67;;;;;24.60;39.64;101091.78;5069791;27;45864;-66
2022/06/15 07:54:28;;;;;;;;;19.00;15.33;;;;;24.79;39.28;101094.91;5069642;27;48261;-69
2022/06/15 07:56:55;;;;;;;;;11.00;11.00;;;;;24.87;39.87;101093.81;5067875;27;45781;-65
2022/06/15 07:59:22;;;;;;;;;10.00;10.00;;;;;24.81;39.38;101082.13;5066554;27;45547;-64
2022/06/15 08:01:48;;;;;;;;;11.67;11.33;;;;;24.81;38.89;101062.06;5066929;27;46154;-68
2022/06/15 08:04:14;;;;;;;;;15.67;9.00;;;;;24.98;39.59;101092.56;5060111;27;46519;-70
2022/06/15 08:06:42;;;;;;;;;15.00;11.33;;;;;25.02;39.05;101080.59;5075080;27;45798;-66
2022/06/15 08:09:09;;;;;;;;;9.00;9.00;;;;;25.07;38.73;101091.41;5068023;27;45903;-70
2022/06/15 08:11:36;;;;;;;;;13.33;13.33;;;;;25.05;38.58;101082.34;5068833;27;45546;-70
2022/06/15 08:14:02;;;;;;;;;16.33;12.00;;;;;25.13;38.67;101080.28;5073224;27;46377;-71
2022/06/15 08:16:27;;;;;;;;;12.00;10.33;;;;;25.19;38.96;101088.34;5067713;27;45472;-71
2022/06/15 08:18:57;;;;;;;;;13.00;11.33;;;;;25.25;38.24;101087.25;5067812;27;45457;-72
2022/06/15 08:21:27;;;;;;;;;9.00;8.00;;;;;25.30;38.16;101082.56;5069127;27;45601;-72
2022/06/15 08:23:55;;;;;;;;;11.33;11.00;;;;;25.31;38.45;101083.44;5061470;27;46270;-70
2022/06/15 08:26:25;;;;;;;;;9.00;7.67;;;;;25.23;38.56;101063.59;5067861;27;45759;-69
2022/06/15 08:28:54;;;;;;;;;11.67;10.00;;;;;25.41;38.52;101076.78;5064130;27;45469;-72
2022/06/15 08:31:20;;;;;;;;;13.00;11.00;;;;;25.37;38.11;101058.66;5070214;27;45673;-71
2022/06/15 08:33:45;;;;;;;;;10.67;10.67;;;;;25.59;38.20;101071.69;5071737;27;45663;-71
2022/06/15 08:36:12;;;;;;;;;11.33;10.67;;;;;25.72;37.75;101076.75;5078795;27;45946;-69
2022/06/15 08:38:39;;;;;;;;;12.67;12.33;;;;;25.79;36.93;101069.22;5073410;27;45464;-70
2022/06/15 08:41:15;;;;;;;;;12.67;9.00;;;;;25.92;36.45;101072.47;5074991;27;45927;-70
2022/06/15 08:44:05;;;;;;;;;12.67;7.00;;;;;26.08;36.56;101075.63;5077767;27;45745;-71
2022/06/15 08:46:55;;;;;;;;;13.67;10.33;;;;;25.97;35.98;101051.34;5066484;27;46024;-70
2022/06/15 08:49:33;;;;;;;;;11.33;9.00;;;;;26.17;36.04;101071.66;5068247;27;45820;-70
2022/06/15 08:52:04;;;;;;;;;8.33;8.33;;;;;26.18;35.88;101071.63;5065273;27;45663;-71
2022/06/15 08:54:39;;;;;;;;;13.00;13.00;;;;;26.25;35.71;101072.31;5071766;27;45525;-70
2022/06/15 08:57:11;;;;;;;;;12.33;12.00;;;;;26.39;35.62;101069.13;5071917;27;45413;-72
2022/06/15 08:59:57;;;;;;;;;14.33;9.00;;;;;26.40;35.28;101051.72;5072935;27;45627;-72
2022/06/15 09:02:34;;;;;;;;;10.67;9.67;;;;;26.64;35.08;101075.53;5076250;27;45775;-71
2022/06/15 09:05:15;;;;;;;;;8.00;7.33;;;;;26.76;34.87;101060.53;5073196;27;46570;-71
2022/06/15 09:08:23;;;;;;;;;12.00;9.67;;;;;26.87;34.55;101061.97;5069002;27;45482;-70
2022/06/15 09:11:16;;;;;;;;;13.00;9.67;;;;;26.94;34.50;101052.56;5063569;27;45839;-71
2022/06/15 09:13:53;;;;;;;;;16.00;12.33;;;;;27.09;34.29;101060.25;5073634;27;45921;-71
2022/06/15 09:16:42;;;;;;;;;12.67;8.67;;;;;27.15;34.13;101076.44;5069348;27;45554;-70
2022/06/15 09:19:12;;;;;;;;;7.00;5.67;;;;;27.15;33.51;101068.22;5072037;27;45419;-68
2022/06/15 09:22:13;;;;;;;;;12.33;8.00;;;;;26.96;33.75;101029.63;5072509;27;45585;-69
2022/06/15 09:24:51;;;;;;;;;15.00;12.00;;;;;27.30;33.47;101066.78;5070064;27;45783;-71
2022/06/15 09:27:32;;;;;;;;;26.00;21.67;;;;;27.38;33.84;101059.13;5073047;27;45655;-69
2022/06/15 09:30:06;;;;;;;;;27.25;24.75;;;;;27.42;33.44;101051.69;5071380;27;45470;-72
2022/06/15 09:32:47;;;;;;;;;21.00;18.00;;;;;27.40;33.22;101037.13;5062253;27;45764;-71
2022/06/15 09:35:26;;;;;;;;;11.67;11.33;;;;;27.64;33.57;101070.97;5067191;27;45764;-68
2022/06/15 09:37:55;;;;;;;;;9.00;9.00;;;;;27.80;32.87;101078.56;5066031;27;46042;-68
2022/06/15 09:40:26;;;;;;;;;12.33;12.33;;;;;27.91;32.70;101074.44;5076985;27;45355;-69
2022/06/15 09:42:57;;;;;;;;;10.00;10.00;;;;;27.98;32.54;101072.34;5070910;27;45533;-66
2022/06/15 09:45:35;;;;;;;;;6.00;6.00;;;;;28.06;31.56;101070.19;5071069;27;46034;-66
2022/06/15 09:48:11;;;;;;;;;11.00;11.00;;;;;28.13;32.03;101074.47;5071251;27;46431;-65
2022/06/15 09:50:43;;;;;;;;;17.67;13.67;;;;;28.18;32.19;101055.06;5072017;27;45471;-65
2022/06/15 09:53:19;;;;;;;;;18.67;17.00;;;;;28.22;32.62;101058.56;5067625;27;45770;-68
2022/06/15 09:55:48;;;;;;;;;10.67;9.33;;;;;28.22;31.80;101053.06;5062786;27;45940;-69
2022/06/15 09:58:18;;;;;;;;;13.67;13.67;;;;;28.21;31.91;101041.16;5062917;27;45734;-69
2022/06/15 10:00:47;;;;;;;;;11.33;10.00;;;;;28.27;32.27;101053.78;5068891;27;45792;-67
2022/06/15 10:03:24;;;;;;;;;16.00;13.67;;;;;28.24;31.99;101046.53;5077063;27;45457;-66
2022/06/15 10:05:53;;;;;;;;;18.67;14.33;;;;;27.90;31.90;100989.34;5071200;27;45539;-66
2022/06/15 10:08:18;;;;;;;;;8.33;8.33;;;;;28.23;32.24;101052.09;5071159;27;46434;-65
2022/06/15 10:10:49;;;;;;;;;13.33;12.00;;;;;28.11;32.10;101031.53;5071012;27;45377;-64
2022/06/15 10:13:14;;;;;;;;;17.67;12.67;;;;;28.30;32.56;101059.13;5070233;27;46196;-67
2022/06/15 10:15:40;;;;;;;;;14.00;12.67;;;;;28.34;32.16;101057.16;5066828;27;46110;-67
2022/06/15 10:18:36;;;;;;;;;19.33;18.00;;;;;28.27;31.49;101045.53;5063730;27;45937;-67
2022/06/15 10:21:09;;;;;;;;;13.33;11.33;;;;;28.23;31.89;101042.03;5064411;27;46071;-67
2022/06/15 10:24:06;;;;;;;;;5.67;5.33;;;;;28.37;31.34;101057.91;5068251;27;45532;-66
2022/06/15 10:26:37;;;;;;;;;8.00;5.67;;;;;28.39;31.50;101063.34;5070536;27;45617;-68
2022/06/15 10:29:14;;;;;;;;;17.67;15.67;;;;;28.41;31.43;101064.16;5070128;27;45534;-66
2022/06/15 10:31:41;;;;;;;;;14.67;14.67;;;;;28.39;31.27;101058.72;5073144;27;45817;-66
2022/06/15 10:34:26;;;;;;;;;12.67;12.67;;;;;28.38;31.27;101048.72;5071839;27;45951;-68
2022/06/15 10:36:55;;;;;;;;;9.00;9.00;;;;;28.50;30.88;101059.16;5075765;27;45565;-69
2022/06/15 10:39:24;;;;;;;;;12.00;9.33;;;;;28.53;30.80;101062.72;5062523;27;45722;-70
2022/06/15 10:41:50;;;;;;;;;10.00;10.00;;;;;28.54;30.70;101059.91;5061734;27;45681;-67
2022/06/15 10:44:18;;;;;;;;;11.33;10.00;;;;;28.55;30.59;101061.72;5063376;27;45814;-67
2022/06/15 10:46:57;;;;;;;;;21.67;16.33;;;;;28.57;30.62;101065.31;5071296;27;46074;-67
2022/06/15 10:49:24;;;;;;;;;12.33;9.00;;;;;28.58;30.53;101063.47;5069231;27;46154;-66
2022/06/15 10:51:50;;;;;;;;;38.50;32.25;;;;;28.58;31.11;101067.13;5069481;27;45575;-69
2022/06/15 10:54:27;;;;;;;;;11.00;11.00;;;;;28.59;30.55;101068.91;5069909;27;45373;-66
2022/06/15 11:02:29;;;;;;;;;16.67;13.67;;;;;28.59;30.30;101057.00;5060934;27;45775;-69
2022/06/15 11:05:04;;;;;;;;;8.00;8.00;;;;;28.57;30.34;101051.56;5065124;27;45561;-68
2022/06/15 11:07:44;;;;;;;;;9.67;7.67;;;;;28.61;30.52;101064.22;5064351;27;45847;-67
2022/06/15 11:10:24;;;;;;;;;12.67;12.67;;;;;28.63;30.77;101062.31;5069408;27;46837;-68
2022/06/15 11:12:57;;;;;;;;;10.67;10.67;;;;;28.61;30.58;101064.22;5069139;27;46164;-66
2022/06/15 11:18:41;;;;;;;;;12.67;12.67;;;;;28.67;29.87;101057.56;5067052;27;45517;-66
2022/06/15 11:21:16;;;;;;;;;11.67;11.00;;;;;28.67;30.73;101065.81;5070390;27;46301;-65
2022/06/15 11:23:59;;;;;;;;;19.67;15.67;;;;;28.68;30.78;101063.00;5064979;27;45409;-68
2022/06/15 11:29:48;;;;;;;;;11.00;11.00;;;;;28.75;30.41;101057.22;5061522;27;45883;-67
2022/06/15 11:32:35;;;;;;;;;9.00;9.00;;;;;28.78;30.64;101057.09;5069758;27;45810;-65
2022/06/15 11:35:13;;;;;;;;;19.00;14.67;;;;;28.75;30.00;101055.34;5072777;27;45469;-67
2022/06/15 11:38:09;;;;;;;;;10.33;9.00;;;;;28.71;30.47;101056.47;5073165;27;45879;-68
2022/06/15 11:40:35;;;;;;;;;10.00;9.67;;;;;28.75;30.58;101048.97;5069650;27;45493;-65
2022/06/15 11:43:01;;;;;;;;;6.00;5.00;;;;;28.72;30.14;101038.13;5070205;27;46442;-67
2022/06/15 11:45:55;;;;;;;;;16.33;15.67;;;;;28.71;29.99;101039.97;5066484;27;45592;-66
2022/06/15 11:48:36;;;;;;;;;9.00;9.00;;;;;28.77;30.38;101047.94;5060677;27;45732;-65
2022/06/15 11:51:12;;;;;;;;;9.67;9.00;;;;;28.80;29.96;101049.66;5061337;27;45528;-68
2022/06/15 11:53:46;;;;;;;;;8.00;8.00;;;;;28.81;29.89;101048.72;5065781;27;45484;-67
2022/06/15 11:56:16;;;;;;;;;11.00;11.00;;;;;28.71;30.19;101041.81;5068365;27;45851;-69
2022/06/15 11:59:07;;;;;;;;;11.67;11.67;;;;;28.85;30.54;101055.84;5068750;27;45893;-66
2022/06/15 12:01:51;;;;;;;;;9.67;8.00;;;;;28.86;29.91;101060.38;5072489;27;45527;-65
2022/06/15 12:04:36;;;;;;;;;13.67;11.67;;;;;28.90;30.46;101056.53;5067771;27;45462;-67
2022/06/15 12:07:25;;;;;;;;;12.67;12.67;;;;;28.92;30.39;101062.84;5068581;27;45474;-68